Angermuende, Germany

11:00 PM CET on December 03, 2016 (GMT +0100)
Amthausstraße | | Change Station

Elev 147 ft 53.01 °N, 14.00 °E | Updated 40 seconds ago

Shallow Fog
Shallow Fog
30.7 °F
Feels Like 31 °F
N
1.2
Wind Variable Wind from West
Gusts 3.1 mph

Today
High -- | Low -- °F
--% Chance of Precip.
Yesterday
High -- | Low -- °F
Precip. -- in
Pressure 30.36 in
Visibility 6.2 miles
Clouds
Windchill 31 °F
Dew Point 27 °F
Humidity 86%
Rainfall 0.00 in
Snow Depth Not available.
7:57 AM 3:49 PM
Waxing Crescent, 17% visible
METAR EDDT 032150Z 28003KT 9999 MIFG NSC M02/M02 Q1028 NOSIG
Pressure 30.36 in
Visibility 6.2 miles
Clouds
Windchill 31 °F
Dew Point 27 °F
Humidity 86%
Rainfall 0.00 in
Snow Depth Not available.
7:57 AM 3:49 PM
Waxing Crescent, 17% visible
METAR EDDT 032150Z 28003KT 9999 MIFG NSC M02/M02 Q1028 NOSIG

10-Day Weather Forecast

×

Almanac

Astronomy

Dec. 03, 2016 Rise Set
Actual Time
Civil Twilight
Nautical Twilight
Astronomical Twilight
Moon
Length of Visible Light
Length of Day
Tomorrow will be .
, % of the Moon is Illuminated

Today's Extremes

Country Highs Country Lows

Community

WunderPhotos

Upload Photos

1,955,506 photos uploaded!

WunderBlog® & News

Nearby

Air Quality

  Air Quality AQ Index Pollutant
Not available.

Snow Depth

Station Depth Elevation

Earthquake Activity

City Distance Mag. Time & Date
Minimum magnitude displayed is 2.5.

Coastal Water Temperatures

Place Temperature

Stations

Nearby Weather Stations

Station Location Temp. Windchill Dew Point Humidity Wind Precip. Elev Updated Type